createdAt,value
2016-08-24T00:00:32.039Z,1017.61
2016-08-24T00:01:32.026Z,1017.58
2016-08-24T00:02:32.012Z,1017.56
2016-08-24T00:03:32.002Z,1017.55
2016-08-24T00:04:31.987Z,1017.54
2016-08-24T00:05:31.980Z,1017.52
2016-08-24T00:06:31.972Z,1017.53
2016-08-24T00:07:31.953Z,1017.51
2016-08-24T00:08:31.949Z,1017.49
2016-08-24T00:09:31.937Z,1017.54
2016-08-24T00:10:31.927Z,1017.49
2016-08-24T00:11:31.918Z,1017.5
2016-08-24T00:12:31.907Z,1017.45
2016-08-24T00:13:31.897Z,1017.44
2016-08-24T00:14:31.887Z,1017.47
2016-08-24T00:15:31.879Z,1017.44
2016-08-24T00:16:31.867Z,1017.44
2016-08-24T00:17:31.847Z,1017.42
2016-08-24T00:18:31.841Z,1017.45
2016-08-24T00:19:31.828Z,1017.46
2016-08-24T00:20:31.815Z,1017.43
2016-08-24T00:21:31.804Z,1017.43
2016-08-24T00:22:31.796Z,1017.42
2016-08-24T00:23:31.791Z,1017.41
2016-08-24T00:24:31.773Z,1017.4
2016-08-24T00:25:31.763Z,1017.42
2016-08-24T00:26:31.751Z,1017.36
2016-08-24T00:27:31.736Z,1017.4
2016-08-24T00:28:31.729Z,1017.36
2016-08-24T00:29:31.721Z,1017.4
2016-08-24T00:30:31.707Z,1017.38
2016-08-24T00:31:31.694Z,1017.34
2016-08-24T00:32:31.698Z,1017.37
2016-08-24T00:33:31.676Z,1017.34
2016-08-24T00:34:31.670Z,1017.33
2016-08-24T00:35:31.654Z,1017.33
2016-08-24T00:36:31.645Z,1017.35
2016-08-24T00:37:31.627Z,1017.33
2016-08-24T00:38:31.622Z,1017.33
2016-08-24T00:39:31.615Z,1017.3
2016-08-24T00:40:31.601Z,1017.32
2016-08-24T00:41:31.587Z,1017.3
2016-08-24T00:42:31.571Z,1017.28
2016-08-24T00:43:31.565Z,1017.3
2016-08-24T00:44:31.552Z,1017.28
2016-08-24T00:45:31.541Z,1017.32
2016-08-24T00:46:31.532Z,1017.28
2016-08-24T00:47:31.521Z,1017.28
2016-08-24T00:48:31.513Z,1017.31
2016-08-24T00:49:31.495Z,1017.28
2016-08-24T00:50:31.487Z,1017.33
2016-08-24T00:51:31.481Z,1017.32
2016-08-24T00:52:31.467Z,1017.36
2016-08-24T00:53:31.455Z,1017.33
2016-08-24T00:54:31.441Z,1017.34
2016-08-24T00:55:31.431Z,1017.36
2016-08-24T00:56:31.420Z,1017.35
2016-08-24T00:57:31.425Z,1017.33
2016-08-24T00:58:31.399Z,1017.34
2016-08-24T00:59:31.389Z,1017.3
2016-08-24T01:00:31.373Z,1017.28
2016-08-24T01:01:31.364Z,1017.29
2016-08-24T01:02:31.355Z,1017.31
2016-08-24T01:03:31.343Z,1017.32
2016-08-24T01:04:31.331Z,1017.32
2016-08-24T01:05:31.323Z,1017.33
2016-08-24T01:06:31.306Z,1017.34
2016-08-24T01:07:31.301Z,1017.31
2016-08-24T01:08:31.287Z,1017.33
2016-08-24T01:09:31.278Z,1017.3
2016-08-24T01:10:31.265Z,1017.32
2016-08-24T01:11:31.257Z,1017.34
2016-08-24T01:12:31.243Z,1017.33
2016-08-24T01:13:31.232Z,1017.35
2016-08-24T01:14:31.222Z,1017.34
2016-08-24T01:15:31.211Z,1017.34
2016-08-24T01:16:31.195Z,1017.31
2016-08-24T01:17:31.186Z,1017.3
2016-08-24T01:18:31.172Z,1017.31
2016-08-24T01:19:31.168Z,1017.32
2016-08-24T01:20:31.151Z,1017.29
2016-08-24T01:21:31.142Z,1017.26
2016-08-24T01:22:31.131Z,1017.3
2016-08-24T01:23:31.119Z,1017.32
2016-08-24T01:24:31.104Z,1017.31
2016-08-24T01:25:31.100Z,1017.28
2016-08-24T01:26:31.081Z,1017.29
2016-08-24T01:27:31.081Z,1017.28
2016-08-24T01:28:31.061Z,1017.25
2016-08-24T01:29:31.048Z,1017.26
2016-08-24T01:30:31.038Z,1017.3
2016-08-24T01:31:31.025Z,1017.24
2016-08-24T01:32:31.049Z,1017.28
2016-08-24T01:33:31.001Z,1017.27
2016-08-24T01:34:31.050Z,1017.24
2016-08-24T01:35:30.982Z,1017.23
2016-08-24T01:36:30.972Z,1017.28
2016-08-24T01:37:30.958Z,1017.28
2016-08-24T01:38:30.946Z,1017.29
2016-08-24T01:39:30.941Z,1017.28
2016-08-24T01:40:30.930Z,1017.26
2016-08-24T01:41:30.909Z,1017.28
2016-08-24T01:42:30.905Z,1017.26
2016-08-24T01:43:30.887Z,1017.23
2016-08-24T01:44:30.930Z,1017.22
2016-08-24T01:45:30.866Z,1017.26
2016-08-24T01:46:30.856Z,1017.26
2016-08-24T01:47:30.844Z,1017.24
2016-08-24T01:48:30.828Z,1017.25
2016-08-24T01:49:30.819Z,1017.27
2016-08-24T01:50:30.815Z,1017.25
2016-08-24T01:51:30.793Z,1017.23
2016-08-24T01:52:30.786Z,1017.25
2016-08-24T01:53:30.772Z,1017.28
2016-08-24T01:54:30.758Z,1017.29
2016-08-24T01:55:30.749Z,1017.27
2016-08-24T01:56:30.741Z,1017.3
2016-08-24T01:57:30.741Z,1017.29
2016-08-24T01:58:30.722Z,1017.29
2016-08-24T01:59:30.711Z,1017.24
2016-08-24T02:00:30.692Z,1017.27
2016-08-24T02:01:30.680Z,1017.25
2016-08-24T02:02:30.668Z,1017.22
2016-08-24T02:03:30.660Z,1017.21
2016-08-24T02:04:30.651Z,1017.22
2016-08-24T02:05:30.641Z,1017.21
2016-08-24T02:06:30.620Z,1017.21
2016-08-24T02:07:30.618Z,1017.14
2016-08-24T02:08:30.598Z,1017.12
2016-08-24T02:09:30.591Z,1017.13
2016-08-24T02:10:30.581Z,1017.15
2016-08-24T02:11:30.562Z,1017.11
2016-08-24T02:12:30.560Z,1017.1
2016-08-24T02:13:30.542Z,1017.06
2016-08-24T02:14:30.531Z,1017.08
2016-08-24T02:15:30.521Z,1017.05
2016-08-24T02:16:30.511Z,1017.02
2016-08-24T02:17:30.501Z,1017.03
2016-08-24T02:18:30.491Z,1017.02
2016-08-24T02:19:30.475Z,1017.02
2016-08-24T02:20:30.458Z,1017.04
2016-08-24T02:21:30.450Z,1017.06
2016-08-24T02:22:30.437Z,1017.06
2016-08-24T02:23:30.431Z,1017.03
2016-08-24T02:24:30.419Z,1017
2016-08-24T02:25:30.408Z,1017.01
2016-08-24T02:26:30.392Z,1016.99
2016-08-24T02:27:30.380Z,1016.99
2016-08-24T02:28:30.377Z,1016.95
2016-08-24T02:29:30.358Z,1016.96
2016-08-24T02:30:30.350Z,1016.96
2016-08-24T02:31:30.336Z,1016.95
2016-08-24T02:32:30.318Z,1016.96
2016-08-24T02:33:30.309Z,1016.93
2016-08-24T02:34:30.302Z,1016.94
2016-08-24T02:35:30.287Z,1016.94
2016-08-24T02:36:30.281Z,1016.99
2016-08-24T02:37:30.272Z,1016.94
2016-08-24T02:38:30.251Z,1016.93
2016-08-24T02:39:30.238Z,1016.91
2016-08-24T02:40:30.225Z,1016.9
2016-08-24T02:41:30.218Z,1016.88
2016-08-24T02:42:30.206Z,1016.88
2016-08-24T02:43:30.194Z,1016.88
2016-08-24T02:44:30.181Z,1016.86
2016-08-24T02:45:30.172Z,1016.86
2016-08-24T02:46:30.160Z,1016.83
2016-08-24T02:47:30.149Z,1016.85
2016-08-24T02:48:30.136Z,1016.87
2016-08-24T02:49:30.121Z,1016.84
2016-08-24T02:50:30.108Z,1016.84
2016-08-24T02:51:30.101Z,1016.87
2016-08-24T02:52:30.088Z,1016.85
2016-08-24T02:53:30.075Z,1016.85
2016-08-24T02:54:30.060Z,1016.86
2016-08-24T02:55:30.050Z,1016.85
2016-08-24T02:56:30.039Z,1016.85
2016-08-24T02:57:30.031Z,1016.85
2016-08-24T02:58:30.017Z,1016.81
2016-08-24T02:59:30.000Z,1016.79
2016-08-24T03:00:29.989Z,1016.78
2016-08-24T03:01:29.980Z,1016.79
2016-08-24T03:02:29.970Z,1016.78
2016-08-24T03:03:29.954Z,1016.77
2016-08-24T03:04:29.937Z,1016.76
2016-08-24T03:05:29.931Z,1016.75
2016-08-24T03:06:29.920Z,1016.74
2016-08-24T03:07:29.912Z,1016.76
2016-08-24T03:08:29.901Z,1016.75
2016-08-24T03:09:29.890Z,1016.75
2016-08-24T03:10:29.871Z,1016.74
2016-08-24T03:11:29.862Z,1016.74
2016-08-24T03:12:29.851Z,1016.7
2016-08-24T03:13:29.839Z,1016.72
2016-08-24T03:14:29.824Z,1016.69
2016-08-24T03:15:29.811Z,1016.7
2016-08-24T03:16:29.804Z,1016.67
2016-08-24T03:17:29.787Z,1016.68
2016-08-24T03:18:29.782Z,1016.69
2016-08-24T03:19:29.770Z,1016.67
2016-08-24T03:20:29.748Z,1016.66
2016-08-24T03:21:29.737Z,1016.63
2016-08-24T03:22:29.728Z,1016.66
2016-08-24T03:23:29.725Z,1016.63
2016-08-24T03:24:29.707Z,1016.67
2016-08-24T03:25:29.691Z,1016.66
2016-08-24T03:26:29.680Z,1016.68
2016-08-24T03:27:29.671Z,1016.66
2016-08-24T03:28:29.653Z,1016.65
2016-08-24T03:29:29.651Z,1016.67
2016-08-24T03:30:29.631Z,1016.64
2016-08-24T03:31:29.620Z,1016.65
2016-08-24T03:32:29.610Z,1016.63
2016-08-24T03:33:29.601Z,1016.66
2016-08-24T03:34:29.580Z,1016.65
2016-08-24T03:35:29.572Z,1016.66
2016-08-24T03:36:29.558Z,1016.62
2016-08-24T03:37:29.550Z,1016.67
2016-08-24T03:38:29.536Z,1016.66
2016-08-24T03:39:29.521Z,1016.66
2016-08-24T03:40:29.507Z,1016.67
2016-08-24T03:41:29.501Z,1016.69
2016-08-24T03:42:29.491Z,1016.65
2016-08-24T03:43:29.480Z,1016.64
2016-08-24T03:44:29.461Z,1016.61
2016-08-24T03:45:29.449Z,1016.62
2016-08-24T03:46:29.441Z,1016.67
2016-08-24T03:47:29.431Z,1016.64
2016-08-24T03:48:29.408Z,1016.61
2016-08-24T03:49:29.400Z,1016.64
2016-08-24T03:50:29.388Z,1016.67
2016-08-24T03:51:29.381Z,1016.68
2016-08-24T03:52:29.364Z,1016.73
2016-08-24T03:53:29.355Z,1016.74
2016-08-24T03:54:29.341Z,1016.73
2016-08-24T03:55:29.330Z,1016.72
2016-08-24T03:56:29.317Z,1016.75
2016-08-24T03:57:29.308Z,1016.74
2016-08-24T03:58:29.291Z,1016.74
2016-08-24T03:59:29.280Z,1016.74
2016-08-24T04:00:29.271Z,1016.74
2016-08-24T04:01:29.255Z,1016.8
2016-08-24T04:02:29.240Z,1016.76
2016-08-24T04:03:29.230Z,1016.71
2016-08-24T04:04:29.217Z,1016.72
2016-08-24T04:05:29.209Z,1016.76
2016-08-24T04:06:29.192Z,1016.71
2016-08-24T04:07:29.182Z,1016.73
2016-08-24T04:08:29.170Z,1016.78
2016-08-24T04:09:29.158Z,1016.75
2016-08-24T04:10:29.150Z,1016.74
2016-08-24T04:11:29.128Z,1016.72
2016-08-24T04:12:29.120Z,1016.66
2016-08-24T04:13:29.109Z,1016.7
2016-08-24T04:14:29.101Z,1016.69
2016-08-24T04:15:29.081Z,1016.72
2016-08-24T04:16:29.066Z,1016.72
2016-08-24T04:17:29.060Z,1016.75
2016-08-24T04:18:29.047Z,1016.73
2016-08-24T04:19:29.036Z,1016.71
2016-08-24T04:20:29.020Z,1016.72
2016-08-24T04:21:29.014Z,1016.71
2016-08-24T04:22:29.000Z,1016.76
2016-08-24T04:23:28.990Z,1016.74
2016-08-24T04:24:28.972Z,1016.75
2016-08-24T04:25:28.961Z,1016.76
2016-08-24T04:26:28.945Z,1016.76
2016-08-24T04:27:28.933Z,1016.75
2016-08-24T04:28:28.920Z,1016.75
2016-08-24T04:29:28.908Z,1016.73
2016-08-24T04:30:28.900Z,1016.76
2016-08-24T04:31:28.890Z,1016.75
2016-08-24T04:32:28.870Z,1016.76
2016-08-24T04:33:28.857Z,1016.77
2016-08-24T04:34:28.846Z,1016.78
2016-08-24T04:35:28.839Z,1016.79
2016-08-24T04:36:28.821Z,1016.84
2016-08-24T04:37:28.810Z,1016.83
2016-08-24T04:38:28.802Z,1016.83
2016-08-24T04:39:28.786Z,1016.82
2016-08-24T04:40:28.769Z,1016.85
2016-08-24T04:41:28.760Z,1016.85
2016-08-24T04:42:28.750Z,1016.84
2016-08-24T04:43:28.739Z,1016.85
2016-08-24T04:44:28.718Z,1016.83
2016-08-24T04:45:28.709Z,1016.86
2016-08-24T04:46:28.700Z,1016.85
2016-08-24T04:47:28.691Z,1016.88
2016-08-24T04:48:28.681Z,1016.85
2016-08-24T04:49:28.660Z,1016.9
2016-08-24T04:50:28.644Z,1016.93
2016-08-24T04:51:28.646Z,1016.91
2016-08-24T04:52:28.622Z,1016.92
2016-08-24T04:53:28.613Z,1016.91
2016-08-24T04:54:28.595Z,1016.92
2016-08-24T04:55:28.591Z,1016.92
2016-08-24T04:56:28.580Z,1016.95
2016-08-24T04:57:28.560Z,1016.94
2016-08-24T04:58:28.551Z,1016.97
2016-08-24T04:59:28.592Z,1016.91
2016-08-24T05:00:28.532Z,1016.94
2016-08-24T05:01:28.512Z,1016.92
2016-08-24T05:02:28.501Z,1016.94
2016-08-24T05:03:28.499Z,1016.91
2016-08-24T05:04:28.481Z,1016.94
2016-08-24T05:05:28.511Z,1016.9
2016-08-24T05:06:28.449Z,1016.88
2016-08-24T05:07:28.439Z,1016.92
2016-08-24T05:08:28.425Z,1016.89
2016-08-24T05:09:28.408Z,1016.9
2016-08-24T05:10:28.400Z,1016.9
2016-08-24T05:11:28.391Z,1016.89
2016-08-24T05:12:28.378Z,1016.94
2016-08-24T05:13:28.360Z,1016.94
2016-08-24T05:14:28.350Z,1016.91
2016-08-24T05:15:28.340Z,1016.95
2016-08-24T05:16:28.325Z,1016.94
2016-08-24T05:17:28.311Z,1016.95
2016-08-24T05:18:28.298Z,1016.96
2016-08-24T05:19:28.290Z,1016.95
2016-08-24T05:20:28.279Z,1016.96
2016-08-24T05:21:28.258Z,1016.95
2016-08-24T05:22:28.251Z,1016.95
2016-08-24T05:23:28.235Z,1016.94
2016-08-24T05:24:28.221Z,1016.98
2016-08-24T05:25:28.211Z,1016.95
2016-08-24T05:26:28.198Z,1016.95
2016-08-24T05:27:28.184Z,1016.94
2016-08-24T05:28:28.180Z,1016.95
2016-08-24T05:29:28.165Z,1016.95
2016-08-24T05:30:28.151Z,1016.96
2016-08-24T05:31:28.138Z,1016.94
2016-08-24T05:32:28.130Z,1016.94
2016-08-24T05:33:28.118Z,1016.96
2016-08-24T05:34:28.098Z,1016.97
2016-08-24T05:35:28.091Z,1016.98
2016-08-24T05:36:28.081Z,1016.99
2016-08-24T05:37:28.065Z,1017
2016-08-24T05:38:28.049Z,1016.99
2016-08-24T05:39:28.035Z,1016.99
2016-08-24T05:40:28.027Z,1016.99
2016-08-24T05:41:28.022Z,1016.99
2016-08-24T05:42:28.000Z,1016.97
2016-08-24T05:43:27.990Z,1016.94
2016-08-24T05:44:27.985Z,1016.96
2016-08-24T05:45:27.967Z,1016.99
2016-08-24T05:46:27.959Z,1016.91
2016-08-24T05:47:27.939Z,1016.93
2016-08-24T05:48:27.930Z,1016.93
2016-08-24T05:49:27.913Z,1016.92
2016-08-24T05:50:27.902Z,1016.93
2016-08-24T05:51:27.888Z,1016.94
2016-08-24T05:52:27.873Z,1016.93
2016-08-24T05:53:27.870Z,1016.95
2016-08-24T05:54:27.858Z,1016.94
2016-08-24T05:55:27.841Z,1016.92
2016-08-24T05:56:27.829Z,1016.98
2016-08-24T05:57:27.820Z,1016.94
2016-08-24T05:58:27.812Z,1016.94
2016-08-24T05:59:27.790Z,1016.97
2016-08-24T06:00:27.781Z,1016.97
2016-08-24T06:01:27.768Z,1016.93
2016-08-24T06:02:27.761Z,1016.94
2016-08-24T06:03:27.745Z,1016.98
2016-08-24T06:04:27.728Z,1016.95
2016-08-24T06:05:27.720Z,1016.97
2016-08-24T06:06:27.712Z,1016.97
2016-08-24T06:07:27.694Z,1017
2016-08-24T06:08:27.691Z,1017.01
2016-08-24T06:09:27.668Z,1017.02
2016-08-24T06:10:27.655Z,1017.04
2016-08-24T06:11:27.647Z,1017.11
2016-08-24T06:12:27.632Z,1017.12
2016-08-24T06:13:27.618Z,1017.11
2016-08-24T06:14:27.609Z,1017.13
2016-08-24T06:15:27.599Z,1017.1
2016-08-24T06:16:27.591Z,1017.1
2016-08-24T06:17:27.573Z,1017.13
2016-08-24T06:18:27.560Z,1017.1
2016-08-24T06:19:27.552Z,1017.11
2016-08-24T06:20:27.539Z,1017.15
2016-08-24T06:21:27.526Z,1017.12
2016-08-24T06:22:27.521Z,1017.13
2016-08-24T06:23:27.501Z,1017.14
2016-08-24T06:24:27.487Z,1017.14
2016-08-24T06:25:27.480Z,1017.14
2016-08-24T06:26:27.466Z,1017.1
2016-08-24T06:27:27.455Z,1017.13
2016-08-24T06:28:27.441Z,1017.14
2016-08-24T06:29:27.428Z,1017.14
2016-08-24T06:30:27.418Z,1017.12
2016-08-24T06:31:27.404Z,1017.12
2016-08-24T06:32:27.400Z,1017.14
2016-08-24T06:33:27.381Z,1017.09
2016-08-24T06:34:27.386Z,1017.11
2016-08-24T06:35:27.361Z,1017.11
2016-08-24T06:36:27.344Z,1017.08
2016-08-24T06:37:27.340Z,1017.09
2016-08-24T06:38:27.329Z,1017.08
2016-08-24T06:39:27.310Z,1017.1
2016-08-24T06:40:27.299Z,1017.11
2016-08-24T06:41:27.288Z,1017.1
2016-08-24T06:42:27.280Z,1017.09
2016-08-24T06:43:27.264Z,1017.08
2016-08-24T06:44:27.258Z,1017.1
2016-08-24T06:45:27.244Z,1017.1
2016-08-24T06:46:27.227Z,1017.1
2016-08-24T06:47:27.220Z,1017.1
2016-08-24T06:48:27.201Z,1017.1
2016-08-24T06:49:27.194Z,1017.12
2016-08-24T06:50:27.190Z,1017.13
2016-08-24T06:51:27.170Z,1017.14
2016-08-24T06:52:27.161Z,1017.13
2016-08-24T06:53:27.151Z,1017.14
2016-08-24T06:54:27.141Z,1017.2
2016-08-24T06:55:27.131Z,1017.28
2016-08-24T06:56:27.116Z,1017.4
2016-08-24T06:57:27.109Z,1017.44
2016-08-24T06:58:27.095Z,1017.46
2016-08-24T06:59:27.086Z,1017.51
2016-08-24T07:00:27.089Z,1017.5
2016-08-24T07:01:27.069Z,1017.53
2016-08-24T07:02:27.061Z,1017.47
2016-08-24T07:03:27.056Z,1017.49
2016-08-24T07:04:27.049Z,1017.47
2016-08-24T07:05:27.040Z,1017.49
2016-08-24T07:06:27.033Z,1017.45
2016-08-24T07:07:27.026Z,1017.43
2016-08-24T07:08:27.031Z,1017.42
2016-08-24T07:09:27.037Z,1017.43
2016-08-24T07:10:27.011Z,1017.43
2016-08-24T07:11:27.004Z,1017.45
2016-08-24T07:12:27.000Z,1017.46
2016-08-24T07:13:26.999Z,1017.43
2016-08-24T07:14:26.995Z,1017.45
2016-08-24T07:15:26.992Z,1017.44
2016-08-24T07:16:26.991Z,1017.46
2016-08-24T07:17:26.988Z,1017.46
2016-08-24T07:18:26.984Z,1017.48
2016-08-24T07:19:26.982Z,1017.51
2016-08-24T07:20:26.977Z,1017.53
2016-08-24T07:21:26.984Z,1017.63
2016-08-24T07:22:26.980Z,1017.62
2016-08-24T07:23:26.974Z,1017.59
2016-08-24T07:24:26.974Z,1017.56
2016-08-24T07:25:26.970Z,1017.58
2016-08-24T07:26:26.969Z,1017.59
2016-08-24T07:27:26.969Z,1017.59
2016-08-24T07:28:26.967Z,1017.55
2016-08-24T07:29:26.967Z,1017.54
2016-08-24T07:30:26.967Z,1017.47
2016-08-24T07:31:26.967Z,1017.49
2016-08-24T07:32:26.965Z,1017.46
2016-08-24T07:33:26.965Z,1017.46
2016-08-24T07:34:26.967Z,1017.44
2016-08-24T07:35:26.978Z,1017.4
2016-08-24T07:36:26.965Z,1017.42
2016-08-24T07:37:26.970Z,1017.44
2016-08-24T07:38:26.967Z,1017.45
2016-08-24T07:39:26.967Z,1017.42
2016-08-24T07:40:26.966Z,1017.4
2016-08-24T07:41:26.970Z,1017.43
2016-08-24T07:42:26.968Z,1017.43
2016-08-24T07:43:26.968Z,1017.45
2016-08-24T07:44:26.971Z,1017.45
2016-08-24T07:45:26.966Z,1017.43
2016-08-24T07:46:26.969Z,1017.42
2016-08-24T07:47:26.976Z,1017.38
2016-08-24T07:48:26.979Z,1017.36
2016-08-24T07:49:26.976Z,1017.36
2016-08-24T07:50:26.976Z,1017.37
2016-08-24T07:51:26.986Z,1017.37
2016-08-24T07:52:26.987Z,1017.36
2016-08-24T07:53:26.987Z,1017.33
2016-08-24T07:54:26.999Z,1017.32
2016-08-24T07:55:26.999Z,1017.31
2016-08-24T07:56:26.999Z,1017.36
2016-08-24T07:57:27.044Z,1017.34
2016-08-24T07:58:27.006Z,1017.4
2016-08-24T07:59:27.016Z,1017.43
2016-08-24T08:00:27.013Z,1017.41
2016-08-24T08:01:27.015Z,1017.39
2016-08-24T08:02:27.029Z,1017.35
2016-08-24T08:03:27.029Z,1017.38
2016-08-24T08:04:27.030Z,1017.39
2016-08-24T08:05:27.039Z,1017.38
2016-08-24T08:06:27.037Z,1017.38
2016-08-24T08:07:27.048Z,1017.37
2016-08-24T08:08:27.049Z,1017.37
2016-08-24T08:09:27.058Z,1017.35
2016-08-24T08:10:27.057Z,1017.32
2016-08-24T08:11:27.065Z,1017.31
2016-08-24T08:12:27.067Z,1017.29
2016-08-24T08:13:27.075Z,1017.28
2016-08-24T08:14:27.078Z,1017.26
2016-08-24T08:15:27.080Z,1017.24
2016-08-24T08:16:27.091Z,1017.25
2016-08-24T08:17:27.093Z,1017.24
2016-08-24T08:18:27.100Z,1017.25
2016-08-24T08:19:27.103Z,1017.3
2016-08-24T08:20:27.139Z,1017.25
2016-08-24T08:21:27.118Z,1017.26
2016-08-24T08:22:27.116Z,1017.27
2016-08-24T08:23:27.127Z,1017.28
2016-08-24T08:24:27.132Z,1017.23
2016-08-24T08:25:27.135Z,1017.26
2016-08-24T08:26:27.138Z,1017.25
2016-08-24T08:27:27.148Z,1017.24
2016-08-24T08:28:27.150Z,1017.28
2016-08-24T08:29:27.161Z,1017.25
2016-08-24T08:30:27.158Z,1017.23
2016-08-24T08:31:27.169Z,1017.19
2016-08-24T08:32:27.175Z,1017.2
2016-08-24T08:33:27.178Z,1017.24
2016-08-24T08:34:27.183Z,1017.2
2016-08-24T08:35:27.187Z,1017.2
2016-08-24T08:36:27.194Z,1017.2
2016-08-24T08:37:27.197Z,1017.18
2016-08-24T08:38:27.198Z,1017.21
2016-08-24T08:39:27.210Z,1017.2
2016-08-24T08:40:27.207Z,1017.18
2016-08-24T08:41:27.227Z,1017.22
2016-08-24T08:42:27.217Z,1017.17
2016-08-24T08:43:27.237Z,1017.16
2016-08-24T08:44:27.233Z,1017.14
2016-08-24T08:45:27.236Z,1017.2
2016-08-24T08:46:27.245Z,1017.19
2016-08-24T08:47:27.249Z,1017.19
2016-08-24T08:48:27.253Z,1017.14
2016-08-24T08:49:27.260Z,1017.16
2016-08-24T08:50:27.267Z,1017.13
2016-08-24T08:51:27.268Z,1017.19
2016-08-24T08:52:27.278Z,1017.12
2016-08-24T08:53:27.286Z,1017.13
2016-08-24T08:54:27.290Z,1017.11
2016-08-24T08:55:27.293Z,1017.12
2016-08-24T08:56:27.300Z,1017.07
2016-08-24T08:57:27.309Z,1017.07
2016-08-24T08:58:27.319Z,1017.1
2016-08-24T08:59:27.322Z,1017.08
2016-08-24T09:00:27.329Z,1017.1
2016-08-24T09:01:27.336Z,1017.1
2016-08-24T09:02:27.348Z,1017.09
2016-08-24T09:03:27.347Z,1017.1
2016-08-24T09:04:27.356Z,1017.07
2016-08-24T09:05:27.362Z,1017.05
2016-08-24T09:06:27.370Z,1017.1
2016-08-24T09:07:27.382Z,1017.14
2016-08-24T09:08:27.380Z,1017.11
2016-08-24T09:09:27.393Z,1017.12
2016-08-24T09:10:27.397Z,1017.1
2016-08-24T09:11:27.410Z,1017.1
2016-08-24T09:12:27.407Z,1017.03
2016-08-24T09:13:27.419Z,1017
2016-08-24T09:14:27.422Z,1017.01
2016-08-24T09:15:27.427Z,1017
2016-08-24T09:16:27.436Z,1016.97
2016-08-24T09:17:27.445Z,1017.01
2016-08-24T09:18:27.448Z,1017.01
2016-08-24T09:19:27.455Z,1016.96
2016-08-24T09:20:27.469Z,1016.98
2016-08-24T09:21:27.472Z,1016.96
2016-08-24T09:22:27.481Z,1016.96
2016-08-24T09:23:27.489Z,1016.96
2016-08-24T09:24:27.489Z,1016.95
2016-08-24T09:25:27.499Z,1016.91
2016-08-24T09:26:27.508Z,1016.95
2016-08-24T09:27:27.507Z,1016.87
2016-08-24T09:28:27.518Z,1016.89
2016-08-24T09:29:27.522Z,1016.9
2016-08-24T09:30:27.527Z,1016.89
2016-08-24T09:31:27.540Z,1016.88
2016-08-24T09:32:27.539Z,1016.84
2016-08-24T09:33:27.551Z,1016.89
2016-08-24T09:34:27.553Z,1016.86
2016-08-24T09:35:27.556Z,1016.85
2016-08-24T09:36:27.564Z,1016.85
2016-08-24T09:37:27.568Z,1016.87
2016-08-24T09:38:27.580Z,1016.85
2016-08-24T09:39:27.586Z,1016.84
2016-08-24T09:40:27.588Z,1016.83
2016-08-24T09:41:27.601Z,1016.82
2016-08-24T09:42:27.603Z,1016.8
2016-08-24T09:43:27.610Z,1016.76
2016-08-24T09:44:27.621Z,1016.75
2016-08-24T09:45:27.620Z,1016.71
2016-08-24T09:46:27.625Z,1016.75
2016-08-24T09:47:27.639Z,1016.72
2016-08-24T09:48:27.640Z,1016.71
2016-08-24T09:49:27.642Z,1016.72
2016-08-24T09:50:27.642Z,1016.71
2016-08-24T09:51:27.647Z,1016.74
2016-08-24T09:52:27.659Z,1016.68
2016-08-24T09:53:27.658Z,1016.72
2016-08-24T09:54:27.667Z,1016.74
2016-08-24T09:55:27.667Z,1016.7
2016-08-24T09:56:27.668Z,1016.72
2016-08-24T09:57:27.678Z,1016.71
2016-08-24T09:58:27.680Z,1016.7
2016-08-24T09:59:27.688Z,1016.68
2016-08-24T10:00:27.692Z,1016.67
2016-08-24T10:01:27.693Z,1016.65
2016-08-24T10:02:27.689Z,1016.65
2016-08-24T10:03:27.697Z,1016.68
2016-08-24T10:04:27.700Z,1016.64
2016-08-24T10:05:27.708Z,1016.62
2016-08-24T10:06:27.710Z,1016.64
2016-08-24T10:07:27.709Z,1016.65
2016-08-24T10:08:27.721Z,1016.67
2016-08-24T10:09:27.717Z,1016.66
2016-08-24T10:10:27.721Z,1016.68
2016-08-24T10:11:27.721Z,1016.75
2016-08-24T10:12:27.727Z,1016.68
2016-08-24T10:13:27.729Z,1016.65
2016-08-24T10:14:27.728Z,1016.67
2016-08-24T10:15:27.728Z,1016.64
2016-08-24T10:16:27.729Z,1016.63
2016-08-24T10:17:27.725Z,1016.62
2016-08-24T10:18:27.726Z,1016.61
2016-08-24T10:19:27.741Z,1016.62
2016-08-24T10:20:27.738Z,1016.64
2016-08-24T10:21:27.738Z,1016.61
2016-08-24T10:22:27.737Z,1016.54
2016-08-24T10:23:27.737Z,1016.59
2016-08-24T10:24:27.739Z,1016.56
2016-08-24T10:25:27.740Z,1016.54
2016-08-24T10:26:27.740Z,1016.53
2016-08-24T10:27:27.738Z,1016.47
2016-08-24T10:28:27.738Z,1016.48
2016-08-24T10:29:27.735Z,1016.46
2016-08-24T10:30:27.733Z,1016.5
2016-08-24T10:31:27.738Z,1016.5
2016-08-24T10:32:27.734Z,1016.46
2016-08-24T10:33:27.730Z,1016.46
2016-08-24T10:34:27.726Z,1016.46
2016-08-24T10:35:27.729Z,1016.43
2016-08-24T10:36:27.728Z,1016.41
2016-08-24T10:37:27.728Z,1016.43
2016-08-24T10:38:27.728Z,1016.43
2016-08-24T10:39:27.730Z,1016.41
2016-08-24T10:40:27.726Z,1016.37
2016-08-24T10:41:27.719Z,1016.36
2016-08-24T10:42:27.718Z,1016.36
2016-08-24T10:43:27.731Z,1016.33
2016-08-24T10:44:27.720Z,1016.32
2016-08-24T10:45:27.715Z,1016.26
2016-08-24T10:46:27.708Z,1016.31
2016-08-24T10:47:27.706Z,1016.3
2016-08-24T10:48:27.705Z,1016.27
2016-08-24T10:49:27.711Z,1016.28
2016-08-24T10:50:27.706Z,1016.28
2016-08-24T10:51:27.698Z,1016.28
2016-08-24T10:52:27.698Z,1016.26
2016-08-24T10:53:27.694Z,1016.21
2016-08-24T10:54:27.696Z,1016.2
2016-08-24T10:55:27.698Z,1016.21
2016-08-24T10:56:27.687Z,1016.2
2016-08-24T10:57:27.692Z,1016.16
2016-08-24T10:58:27.687Z,1016.16
2016-08-24T10:59:27.680Z,1016.12
2016-08-24T11:00:27.677Z,1016.08
2016-08-24T11:01:27.675Z,1016.08
2016-08-24T11:02:27.675Z,1016.06
2016-08-24T11:03:27.667Z,1016.06
2016-08-24T11:04:27.671Z,1016.09
2016-08-24T11:05:27.683Z,1016.08
2016-08-24T11:06:27.665Z,1016.07
2016-08-24T11:07:27.660Z,1016.05
2016-08-24T11:08:27.659Z,1016.08
2016-08-24T11:09:27.659Z,1016.06
2016-08-24T11:10:27.659Z,1016.02
2016-08-24T11:11:27.652Z,1016.04
2016-08-24T11:12:27.648Z,1016.06
2016-08-24T11:13:27.646Z,1016.04
2016-08-24T11:14:27.647Z,1016.02
2016-08-24T11:15:27.651Z,1016.08
2016-08-24T11:16:27.641Z,1015.99
2016-08-24T11:17:27.642Z,1016
2016-08-24T11:18:27.641Z,1015.97
2016-08-24T11:19:27.638Z,1016.07
2016-08-24T11:20:27.628Z,1015.97
2016-08-24T11:21:27.628Z,1015.95
2016-08-24T11:22:27.628Z,1015.96
2016-08-24T11:23:27.629Z,1015.98
2016-08-24T11:24:27.631Z,1015.97
2016-08-24T11:25:27.622Z,1015.94
2016-08-24T11:26:27.619Z,1015.99
2016-08-24T11:27:27.618Z,1015.94
2016-08-24T11:28:27.622Z,1015.96
2016-08-24T11:29:27.608Z,1015.93
2016-08-24T11:30:27.615Z,1015.9
2016-08-24T11:31:27.601Z,1015.9
2016-08-24T11:32:27.600Z,1015.88
2016-08-24T11:33:27.598Z,1015.89
2016-08-24T11:34:27.602Z,1015.9
2016-08-24T11:35:27.591Z,1015.86
2016-08-24T11:36:27.596Z,1015.86
2016-08-24T11:37:27.591Z,1015.88
2016-08-24T11:38:27.591Z,1015.89
2016-08-24T11:39:27.585Z,1015.84
2016-08-24T11:40:27.590Z,1015.81
2016-08-24T11:41:27.580Z,1015.82
2016-08-24T11:42:27.582Z,1015.8
2016-08-24T11:43:27.579Z,1015.82
2016-08-24T11:44:27.576Z,1015.78
2016-08-24T11:45:27.571Z,1015.78
2016-08-24T11:46:27.571Z,1015.77
2016-08-24T11:47:27.566Z,1015.76
2016-08-24T11:48:27.559Z,1015.71
2016-08-24T11:49:27.565Z,1015.65
2016-08-24T11:50:27.561Z,1015.63
2016-08-24T11:51:27.563Z,1015.69
2016-08-24T11:52:27.555Z,1015.63
2016-08-24T11:53:27.562Z,1015.58
2016-08-24T11:54:27.550Z,1015.6
2016-08-24T11:55:27.549Z,1015.58
2016-08-24T11:56:27.547Z,1015.58
2016-08-24T11:57:27.550Z,1015.58
2016-08-24T11:58:27.546Z,1015.6
2016-08-24T11:59:27.541Z,1015.54
2016-08-24T12:00:27.539Z,1015.57
2016-08-24T12:01:27.538Z,1015.59
2016-08-24T12:02:27.537Z,1015.59
2016-08-24T12:03:27.533Z,1015.56
2016-08-24T12:04:27.531Z,1015.56
2016-08-24T12:05:27.531Z,1015.58
2016-08-24T12:06:27.528Z,1015.54
2016-08-24T12:07:27.525Z,1015.54
2016-08-24T12:08:27.530Z,1015.51